createdAt,value
2023-04-23T00:00:24.463Z,7.22
2023-04-23T00:03:27.771Z,6.47
2023-04-23T00:06:30.799Z,6.18
2023-04-23T00:09:33.022Z,5.80
2023-04-23T00:12:35.776Z,5.85
2023-04-23T00:15:38.512Z,6.13
2023-04-23T00:18:40.429Z,6.10
2023-04-23T00:21:42.832Z,6.45
2023-04-23T00:24:44.963Z,7.10
2023-04-23T00:27:47.921Z,8.57
2023-04-23T00:30:49.852Z,9.95
2023-04-23T00:33:52.043Z,8.95
2023-04-23T00:36:53.978Z,8.52
2023-04-23T00:39:56.059Z,9.70
2023-04-23T00:42:58.423Z,9.23
2023-04-23T00:46:00.639Z,10.05
2023-04-23T00:49:03.228Z,7.68
2023-04-23T00:52:06.069Z,7.70
2023-04-23T00:55:09.075Z,9.38
2023-04-23T00:58:11.096Z,8.93
2023-04-23T01:01:13.998Z,8.02
2023-04-23T01:04:17.917Z,7.72
2023-04-23T01:07:21.364Z,8.32
2023-04-23T01:10:23.657Z,7.25
2023-04-23T01:13:29.893Z,5.53
2023-04-23T01:16:31.942Z,5.10
2023-04-23T01:19:33.878Z,5.22
2023-04-23T01:22:37.823Z,5.10
2023-04-23T01:25:40.009Z,5.03
2023-04-23T01:28:43.669Z,5.38
2023-04-23T01:31:47.009Z,5.50
2023-04-23T01:34:49.341Z,5.20
2023-04-23T01:37:52.683Z,5.70
2023-04-23T01:40:54.653Z,5.40
2023-04-23T01:43:59.898Z,4.90
2023-04-23T01:47:01.921Z,6.15
2023-04-23T01:50:05.276Z,5.00
2023-04-23T01:53:07.320Z,4.68
2023-04-23T01:56:10.695Z,5.10
2023-04-23T01:59:12.664Z,4.95
2023-04-23T02:02:15.298Z,5.07
2023-04-23T02:05:19.110Z,4.80
2023-04-23T02:08:21.421Z,5.55
2023-04-23T02:11:24.166Z,5.07
2023-04-23T02:14:26.171Z,4.47
2023-04-23T02:17:29.303Z,4.72
2023-04-23T02:20:31.417Z,4.57
2023-04-23T02:23:33.507Z,5.30
2023-04-23T02:26:35.347Z,4.97
2023-04-23T02:29:38.107Z,5.97
2023-04-23T02:32:41.789Z,5.65
2023-04-23T02:35:43.700Z,5.90
2023-04-23T02:38:47.613Z,4.53
2023-04-23T02:41:49.520Z,4.45
2023-04-23T02:44:51.628Z,4.20
2023-04-23T02:47:53.621Z,4.20
2023-04-23T02:50:55.631Z,4.82
2023-04-23T02:53:58.126Z,3.42
2023-04-23T02:57:00.262Z,3.35
2023-04-23T03:00:04.283Z,3.28
2023-04-23T03:03:06.464Z,3.53
2023-04-23T03:06:08.601Z,3.55
2023-04-23T03:09:10.891Z,3.50
2023-04-23T03:12:12.912Z,3.65
2023-04-23T03:15:14.847Z,3.50
2023-04-23T03:18:16.766Z,3.60
2023-04-23T03:21:18.589Z,3.75
2023-04-23T03:24:20.669Z,3.50
2023-04-23T03:27:22.493Z,3.83
2023-04-23T03:30:24.812Z,3.80
2023-04-23T03:33:26.860Z,3.78
2023-04-23T03:36:29.290Z,3.83
2023-04-23T03:39:31.201Z,3.50
2023-04-23T03:42:34.235Z,3.47
2023-04-23T03:45:36.236Z,3.45
2023-04-23T03:48:38.098Z,3.60
2023-04-23T03:51:40.132Z,3.75
2023-04-23T03:54:42.285Z,3.92
2023-04-23T03:57:44.298Z,3.85
2023-04-23T04:00:47.352Z,4.57
2023-04-23T04:03:49.755Z,4.00
2023-04-23T04:06:51.912Z,4.90
2023-04-23T04:09:53.831Z,5.68
2023-04-23T04:12:56.234Z,6.13
2023-04-23T04:15:59.642Z,3.97
2023-04-23T04:19:01.866Z,3.65
2023-04-23T04:22:03.873Z,3.95
2023-04-23T04:25:07.006Z,4.00
2023-04-23T04:28:11.756Z,4.25
2023-04-23T04:31:16.038Z,5.25
2023-04-23T04:34:18.384Z,4.75
2023-04-23T04:37:21.410Z,4.60
2023-04-23T04:40:23.355Z,4.93
2023-04-23T04:43:25.249Z,5.95
2023-04-23T04:46:29.334Z,5.55
2023-04-23T04:49:31.366Z,5.50
2023-04-23T04:52:33.373Z,7.15
2023-04-23T04:55:35.234Z,9.35
2023-04-23T04:58:37.316Z,15.65
2023-04-23T05:01:39.316Z,17.40
2023-04-23T05:04:41.489Z,13.05
2023-04-23T05:07:43.685Z,8.95
2023-04-23T05:10:45.871Z,10.18
2023-04-23T05:13:48.847Z,7.32
2023-04-23T05:16:51.281Z,5.30
2023-04-23T05:19:53.223Z,5.13
2023-04-23T05:22:55.372Z,4.90
2023-04-23T05:25:58.774Z,6.00
2023-04-23T05:29:00.763Z,5.20
2023-04-23T05:32:02.724Z,4.53
2023-04-23T05:35:06.231Z,5.07
2023-04-23T05:38:12.377Z,34.60
2023-04-23T05:41:15.591Z,8.07
2023-04-23T05:44:17.410Z,5.82
2023-04-23T05:47:19.375Z,4.05
2023-04-23T05:50:22.009Z,9.90
2023-04-23T05:53:24.135Z,5.00
2023-04-23T05:56:26.089Z,14.02
2023-04-23T05:59:28.314Z,3.95
2023-04-23T06:02:34.003Z,4.40
2023-04-23T06:05:38.269Z,3.65
2023-04-23T06:08:40.679Z,4.43
2023-04-23T06:11:42.768Z,9.70
2023-04-23T06:14:44.774Z,4.20
2023-04-23T06:17:49.383Z,5.28
2023-04-23T06:23:54.640Z,7.25
2023-04-23T06:26:57.863Z,4.18
2023-04-23T06:30:01.911Z,4.15
2023-04-23T06:33:05.137Z,3.83
2023-04-23T06:36:11.001Z,4.20
2023-04-23T06:39:13.337Z,9.75
2023-04-23T06:42:15.255Z,4.00
2023-04-23T06:45:20.425Z,5.68
2023-04-23T06:48:22.807Z,3.80
2023-04-23T06:51:28.127Z,4.70
2023-04-23T06:54:32.395Z,4.30
2023-04-23T06:57:37.553Z,21.08
2023-04-23T07:00:44.412Z,4.72
2023-04-23T07:03:49.296Z,4.82
2023-04-23T07:07:00.319Z,6.40
2023-04-23T07:10:02.545Z,5.55
2023-04-23T07:13:04.844Z,5.53
2023-04-23T07:16:07.140Z,4.65
2023-04-23T07:19:09.319Z,4.43
2023-04-23T07:22:14.467Z,6.20
2023-04-23T07:25:22.673Z,4.30
2023-04-23T07:28:29.297Z,7.22
2023-04-23T07:31:35.569Z,20.35
2023-04-23T07:34:40.137Z,4.72
2023-04-23T07:37:44.637Z,6.35
2023-04-23T07:43:49.612Z,13.82
2023-04-23T07:46:54.666Z,5.68
2023-04-23T07:50:02.154Z,17.27
2023-04-23T07:53:05.308Z,11.10
2023-04-23T07:56:10.566Z,13.38
2023-04-23T07:59:12.805Z,5.85
2023-04-23T08:02:18.743Z,12.55
2023-04-23T08:05:23.974Z,4.03
2023-04-23T08:08:30.920Z,5.28
2023-04-23T08:11:37.765Z,35.33
2023-04-23T08:14:40.383Z,9.05
2023-04-23T08:17:45.158Z,30.83
2023-04-23T08:20:54.181Z,8.93
2023-04-23T08:23:58.699Z,57.97
2023-04-23T08:27:00.723Z,17.08
2023-04-23T08:30:05.102Z,15.02
2023-04-23T08:33:10.807Z,4.55
2023-04-23T08:36:12.927Z,19.73
2023-04-23T08:39:18.037Z,4.97
2023-04-23T08:42:58.972Z,4.22
2023-04-23T08:46:06.189Z,37.72
2023-04-23T08:49:09.227Z,7.25
2023-04-23T08:52:23.178Z,10.70
2023-04-23T08:55:26.288Z,9.30
2023-04-23T08:58:34.288Z,10.90
2023-04-23T09:01:39.305Z,10.75
2023-04-23T09:04:45.924Z,16.40
2023-04-23T09:07:50.930Z,10.43
2023-04-23T09:10:59.176Z,5.05
2023-04-23T09:14:02.170Z,11.57
2023-04-23T09:17:07.039Z,8.25
2023-04-23T09:20:09.967Z,7.50
2023-04-23T09:23:21.723Z,8.88
2023-04-23T09:26:23.785Z,14.48
2023-04-23T09:29:26.854Z,5.57
2023-04-23T09:32:34.816Z,5.28
2023-04-23T09:35:40.724Z,8.98
2023-04-23T09:38:43.062Z,26.10
2023-04-23T09:41:48.328Z,5.75
2023-04-23T09:45:04.762Z,5.10
2023-04-23T09:48:07.021Z,20.63
2023-04-23T09:51:09.302Z,5.20
2023-04-23T09:54:18.579Z,4.35
2023-04-23T09:57:20.593Z,4.88
2023-04-23T10:00:25.852Z,5.07
2023-04-23T10:03:30.933Z,4.55
2023-04-23T10:06:44.292Z,5.10
2023-04-23T10:09:51.808Z,4.95
2023-04-23T10:12:57.339Z,4.40
2023-04-23T10:16:13.894Z,4.38
2023-04-23T10:19:19.703Z,5.10
2023-04-23T10:22:22.917Z,8.45
2023-04-23T10:25:25.780Z,11.25
2023-04-23T10:28:33.688Z,8.88
2023-04-23T10:31:38.806Z,5.32
2023-04-23T10:34:42.159Z,5.57
2023-04-23T10:37:46.456Z,4.20
2023-04-23T10:40:51.058Z,6.90
2023-04-23T10:43:53.904Z,4.78
2023-04-23T10:46:58.470Z,6.30
2023-04-23T10:50:23.115Z,4.68
2023-04-23T10:53:26.388Z,4.28
2023-04-23T10:56:28.613Z,5.40
2023-04-23T10:59:32.215Z,27.08
2023-04-23T11:02:44.955Z,4.93
2023-04-23T11:05:47.031Z,13.18
2023-04-23T11:08:56.850Z,18.75
2023-04-23T11:12:01.525Z,12.60
2023-04-23T11:15:15.173Z,25.65
2023-04-23T11:18:17.263Z,21.55
2023-04-23T11:21:19.347Z,5.18
2023-04-23T11:24:23.051Z,3.95
2023-04-23T11:27:25.529Z,5.40
2023-04-23T11:30:29.956Z,14.73
2023-04-23T11:33:32.142Z,4.35
2023-04-23T11:36:34.713Z,6.05
2023-04-23T11:39:44.264Z,5.93
2023-04-23T11:42:51.357Z,41.05
2023-04-23T11:45:55.877Z,5.10
2023-04-23T11:49:00.130Z,4.88
2023-04-23T11:52:02.233Z,4.00
2023-04-23T11:55:06.587Z,4.10
2023-04-23T11:58:08.536Z,5.20
2023-04-23T12:01:13.472Z,7.07
2023-04-23T12:04:27.080Z,6.05
2023-04-23T12:07:32.927Z,7.68
2023-04-23T12:10:50.123Z,4.50
2023-04-23T12:13:53.990Z,4.55
2023-04-23T12:16:57.320Z,4.22
2023-04-23T12:19:59.272Z,6.57
2023-04-23T12:23:05.488Z,7.57
2023-04-23T12:26:15.692Z,39.33
2023-04-23T12:29:18.312Z,10.80
2023-04-23T12:32:27.052Z,4.20
2023-04-23T12:35:58.480Z,30.20
2023-04-23T12:39:32.086Z,5.40
2023-04-23T12:42:34.688Z,9.25
2023-04-23T12:45:39.626Z,7.70
2023-04-23T12:48:41.606Z,21.67
2023-04-23T12:51:43.738Z,52.72
2023-04-23T12:54:45.845Z,28.63
2023-04-23T12:57:47.770Z,31.70
2023-04-23T13:00:49.682Z,5.18
2023-04-23T13:03:52.101Z,3.30
2023-04-23T13:06:54.567Z,3.53
2023-04-23T13:09:57.746Z,13.75
2023-04-23T13:12:59.762Z,13.38
2023-04-23T13:16:02.125Z,6.63
2023-04-23T13:19:05.213Z,6.40
2023-04-23T13:22:07.199Z,8.45
2023-04-23T13:25:09.647Z,6.50
2023-04-23T13:28:11.613Z,16.63
2023-04-23T13:31:14.275Z,9.15
2023-04-23T13:34:16.738Z,6.47
2023-04-23T13:37:18.740Z,17.33
2023-04-23T13:40:20.837Z,13.73
2023-04-23T13:43:22.972Z,5.55
2023-04-23T13:49:29.644Z,3.20
2023-04-23T13:52:34.735Z,5.82
2023-04-23T13:55:37.212Z,3.30
2023-04-23T13:58:42.890Z,4.57
2023-04-23T14:01:47.237Z,6.78
2023-04-23T14:05:09.848Z,4.13
2023-04-23T14:08:13.052Z,4.50
2023-04-23T14:11:15.052Z,6.00
2023-04-23T14:14:16.904Z,5.22
2023-04-23T14:17:18.822Z,8.55
2023-04-23T14:20:20.938Z,26.42
2023-04-23T14:23:22.834Z,6.72
2023-04-23T14:26:46.709Z,3.53
2023-04-23T14:29:55.922Z,6.53
2023-04-23T14:32:57.846Z,4.55
2023-04-23T14:35:59.755Z,5.13
2023-04-23T14:39:05.123Z,14.05
2023-04-23T14:42:06.972Z,5.57
2023-04-23T14:45:09.270Z,3.85
2023-04-23T14:48:12.465Z,15.02
2023-04-23T14:51:14.383Z,6.20
2023-04-23T14:54:17.436Z,6.93
2023-04-23T14:57:19.349Z,4.15
2023-04-23T15:00:22.381Z,3.53
2023-04-23T15:03:24.546Z,4.82
2023-04-23T15:06:26.862Z,4.45
2023-04-23T15:09:28.687Z,3.78
2023-04-23T15:12:53.693Z,4.72
2023-04-23T15:16:00.158Z,5.25
2023-04-23T15:19:06.390Z,4.28
2023-04-23T15:22:08.436Z,3.83
2023-04-23T15:25:10.993Z,4.78
2023-04-23T15:28:12.887Z,6.55
2023-04-23T15:31:14.933Z,9.27
2023-04-23T15:34:16.802Z,3.63
2023-04-23T15:37:21.113Z,3.88
2023-04-23T15:40:23.364Z,3.45
2023-04-23T15:43:25.532Z,11.32
2023-04-23T15:46:27.361Z,4.22
2023-04-23T15:49:31.696Z,5.80
2023-04-23T15:52:33.749Z,3.72
2023-04-23T15:55:35.851Z,3.70
2023-04-23T15:58:38.144Z,4.75
2023-04-23T16:01:40.358Z,20.20
2023-04-23T16:04:43.003Z,3.13
2023-04-23T16:07:45.308Z,17.33
2023-04-23T16:10:47.410Z,4.70
2023-04-23T16:13:49.582Z,31.70
2023-04-23T16:16:52.215Z,4.25
2023-04-23T16:19:54.320Z,3.42
2023-04-23T16:22:56.434Z,4.50
2023-04-23T16:25:58.458Z,4.15
2023-04-23T16:32:07.103Z,4.82
2023-04-23T16:35:11.866Z,3.58
2023-04-23T16:38:14.021Z,4.60
2023-04-23T16:41:17.673Z,4.50
2023-04-23T16:44:19.765Z,5.90
2023-04-23T16:47:21.925Z,11.75
2023-04-23T16:50:24.160Z,4.35
2023-04-23T16:53:26.298Z,6.97
2023-04-23T16:56:28.534Z,3.65
2023-04-23T16:59:31.020Z,5.80
2023-04-23T17:02:34.612Z,3.40
2023-04-23T17:05:39.175Z,21.58
2023-04-23T17:08:41.487Z,3.20
2023-04-23T17:11:43.550Z,32.90
2023-04-23T17:14:45.549Z,5.90
2023-04-23T17:17:47.536Z,5.97
2023-04-23T17:20:50.642Z,9.50
2023-04-23T17:23:53.181Z,3.63
2023-04-23T17:26:55.086Z,9.35
2023-04-23T17:29:58.932Z,8.90
2023-04-23T17:33:01.192Z,7.03
2023-04-23T17:36:04.560Z,7.82
2023-04-23T17:39:07.660Z,5.07
2023-04-23T17:42:10.461Z,4.82
2023-04-23T17:45:12.955Z,3.67
2023-04-23T17:48:15.666Z,3.88
2023-04-23T17:51:18.864Z,4.03
2023-04-23T17:54:24.754Z,4.88
2023-04-23T18:00:29.239Z,7.50
2023-04-23T18:03:32.302Z,4.80
2023-04-23T18:06:36.056Z,8.20
2023-04-23T18:09:38.573Z,9.02
2023-04-23T18:12:40.906Z,12.43
2023-04-23T18:15:49.800Z,18.15
2023-04-23T18:18:52.132Z,25.63
2023-04-23T18:21:57.560Z,23.65
2023-04-23T18:24:59.777Z,22.38
2023-04-23T18:28:02.337Z,21.77
2023-04-23T18:31:04.783Z,27.25
2023-04-23T18:34:10.739Z,12.82
2023-04-23T18:37:33.221Z,23.00
2023-04-23T18:40:48.752Z,12.27
2023-04-23T18:43:51.561Z,19.20
2023-04-23T18:46:53.858Z,34.38
2023-04-23T18:50:03.645Z,38.28
2023-04-23T18:53:06.627Z,37.47
2023-04-23T18:56:11.058Z,30.38
2023-04-23T18:59:15.751Z,29.92
2023-04-23T19:02:28.221Z,33.05
2023-04-23T19:05:37.293Z,40.40
2023-04-23T19:08:42.946Z,39.70
2023-04-23T19:11:45.369Z,42.15
2023-04-23T19:14:50.538Z,38.10
2023-04-23T19:17:53.064Z,38.55
2023-04-23T19:20:55.742Z,51.88
2023-04-23T19:23:58.100Z,39.38
2023-04-23T19:27:00.969Z,33.47
2023-04-23T19:30:05.220Z,32.45
2023-04-23T19:33:07.608Z,23.83
2023-04-23T19:36:10.413Z,27.13
2023-04-23T19:39:12.762Z,28.77
2023-04-23T19:42:15.257Z,31.50
2023-04-23T19:45:18.477Z,34.33
2023-04-23T19:48:20.807Z,36.95
2023-04-23T19:51:27.994Z,38.85
2023-04-23T19:54:30.683Z,39.25
2023-04-23T19:57:33.071Z,31.95
2023-04-23T20:00:39.110Z,43.35
2023-04-23T20:03:43.819Z,49.90
2023-04-23T20:06:46.096Z,55.67
2023-04-23T20:09:48.227Z,85.93
2023-04-23T20:12:50.362Z,64.85
2023-04-23T20:15:55.718Z,72.70
2023-04-23T20:18:57.963Z,67.55
2023-04-23T20:22:07.716Z,65.85
2023-04-23T20:25:10.209Z,59.03
2023-04-23T20:28:12.252Z,55.25
2023-04-23T20:31:15.016Z,52.92
2023-04-23T20:34:17.300Z,44.50
2023-04-23T20:37:21.677Z,32.67
2023-04-23T20:40:25.023Z,36.63
2023-04-23T20:43:27.003Z,26.35
2023-04-23T20:46:32.512Z,32.70
2023-04-23T20:49:34.821Z,30.00
2023-04-23T20:52:37.086Z,28.27
2023-04-23T20:55:39.140Z,28.33
2023-04-23T20:58:41.909Z,30.02
2023-04-23T21:01:43.917Z,29.63
2023-04-23T21:04:45.863Z,28.63
2023-04-23T21:07:50.760Z,23.17
2023-04-23T21:10:52.893Z,19.13
2023-04-23T21:14:00.170Z,18.73
2023-04-23T21:17:02.780Z,15.55
2023-04-23T21:20:05.773Z,13.63
2023-04-23T21:23:10.062Z,12.38
2023-04-23T21:26:12.341Z,13.93
2023-04-23T21:29:14.419Z,10.38
2023-04-23T21:32:16.687Z,11.82
2023-04-23T21:35:19.588Z,9.80
2023-04-23T21:38:21.654Z,12.63
2023-04-23T21:41:24.577Z,15.10
2023-04-23T21:44:28.579Z,13.55
2023-04-23T21:47:30.469Z,10.68
2023-04-23T21:50:36.203Z,10.07
2023-04-23T21:53:41.284Z,18.98
2023-04-23T21:56:50.752Z,19.08
2023-04-23T21:59:52.718Z,17.52
2023-04-23T22:03:00.809Z,15.60
2023-04-23T22:06:04.377Z,18.13
2023-04-23T22:09:07.410Z,19.70
2023-04-23T22:12:10.112Z,24.75
2023-04-23T22:15:19.516Z,24.52
2023-04-23T22:18:21.580Z,19.90
2023-04-23T22:21:23.459Z,20.90
2023-04-23T22:24:25.347Z,20.95
2023-04-23T22:27:27.233Z,20.83
2023-04-23T22:30:30.722Z,17.50
2023-04-23T22:33:32.706Z,21.83
2023-04-23T22:36:34.607Z,18.90
2023-04-23T22:39:36.677Z,17.35
2023-04-23T22:42:38.656Z,18.05
2023-04-23T22:45:40.728Z,15.02
2023-04-23T22:48:45.006Z,13.52
2023-04-23T22:51:47.433Z,12.25
2023-04-23T22:54:49.979Z,13.10
2023-04-23T22:57:52.016Z,15.68
2023-04-23T23:00:55.105Z,15.55
2023-04-23T23:03:57.285Z,10.02
2023-04-23T23:06:59.174Z,10.82
2023-04-23T23:10:01.110Z,7.00
2023-04-23T23:13:03.053Z,9.00
2023-04-23T23:16:05.933Z,8.32
2023-04-23T23:19:08.330Z,8.13
2023-04-23T23:22:10.307Z,8.05
2023-04-23T23:25:12.772Z,8.20
2023-04-23T23:28:14.650Z,6.97
2023-04-23T23:31:16.992Z,10.50
2023-04-23T23:34:19.339Z,9.07
2023-04-23T23:37:21.560Z,10.35
2023-04-23T23:40:23.649Z,8.35
2023-04-23T23:43:25.794Z,11.57
2023-04-23T23:46:28.141Z,9.38
2023-04-23T23:49:30.277Z,11.18
2023-04-23T23:52:32.373Z,10.60
2023-04-23T23:55:34.277Z,11.15
2023-04-23T23:58:36.585Z,9.80
